Terminal Aerodrome Forecast
Issued by NWS

Home | Current Version | Previous Version | Text Only | Print | Product List | Glossary On
Versions: 1 2 3 4 5 6 7 8 9 10 11 12 13 14 15 16 17 18 19 20 21 22 23 24
746
FTUS41 KPBZ 291327 AAB
TAFHLG
TAF AMD
KHLG 291327Z 2913/3012 19003KT 1 1/2SM BR OVC002
     FM291430 29003KT 4SM BR BKN002 BKN040
     FM291500 32002KT 4SM BR BKN007
     FM291600 28004KT P6SM BKN015
     FM291700 31004KT P6SM BKN025
     FM291800 32005KT P6SM BKN050=

USA.gov is the U.S. government's official web portal to all federal, state and local government web resources and services.